sensor_id;sensor_type;location;lat;lon;timestamp;P1;durP1;ratioP1;P2;durP2;ratioP2
41255;SDS011;26989;45.524;10.938;2023-04-28T00:00:04;7.85;;;4.57;;
41255;SDS011;26989;45.524;10.938;2023-04-28T00:02:31;6.22;;;4.32;;
41255;SDS011;26989;45.524;10.938;2023-04-28T00:04:59;8.43;;;4.82;;
41255;SDS011;26989;45.524;10.938;2023-04-28T00:07:26;6.65;;;3.67;;
41255;SDS011;26989;45.524;10.938;2023-04-28T00:09:53;7.88;;;4.78;;
41255;SDS011;26989;45.524;10.938;2023-04-28T00:12:22;8.30;;;4.53;;
41255;SDS011;26989;45.524;10.938;2023-04-28T00:14:49;8.55;;;5.05;;
41255;SDS011;26989;45.524;10.938;2023-04-28T00:17:16;6.95;;;4.70;;
41255;SDS011;26989;45.524;10.938;2023-04-28T00:19:43;8.05;;;4.95;;
41255;SDS011;26989;45.524;10.938;2023-04-28T00:22:10;7.57;;;4.85;;
41255;SDS011;26989;45.524;10.938;2023-04-28T00:24:37;7.68;;;4.32;;
41255;SDS011;26989;45.524;10.938;2023-04-28T00:27:04;7.18;;;4.03;;
41255;SDS011;26989;45.524;10.938;2023-04-28T00:29:31;6.22;;;4.50;;
41255;SDS011;26989;45.524;10.938;2023-04-28T00:31:57;7.68;;;4.60;;
41255;SDS011;26989;45.524;10.938;2023-04-28T00:34:24;8.55;;;4.45;;
41255;SDS011;26989;45.524;10.938;2023-04-28T00:36:51;6.45;;;4.35;;
41255;SDS011;26989;45.524;10.938;2023-04-28T00:39:18;6.45;;;4.55;;
41255;SDS011;26989;45.524;10.938;2023-04-28T00:41:46;9.27;;;4.30;;
41255;SDS011;26989;45.524;10.938;2023-04-28T00:44:12;9.18;;;4.53;;
41255;SDS011;26989;45.524;10.938;2023-04-28T00:46:39;7.00;;;4.40;;
41255;SDS011;26989;45.524;10.938;2023-04-28T00:49:07;8.57;;;5.00;;
41255;SDS011;26989;45.524;10.938;2023-04-28T00:51:34;7.10;;;4.63;;
41255;SDS011;26989;45.524;10.938;2023-04-28T00:54:01;7.55;;;4.50;;
41255;SDS011;26989;45.524;10.938;2023-04-28T00:56:29;9.05;;;5.32;;
41255;SDS011;26989;45.524;10.938;2023-04-28T00:58:58;8.38;;;4.57;;
41255;SDS011;26989;45.524;10.938;2023-04-28T01:01:25;8.20;;;4.57;;
41255;SDS011;26989;45.524;10.938;2023-04-28T01:03:52;7.82;;;4.68;;
41255;SDS011;26989;45.524;10.938;2023-04-28T01:06:20;7.60;;;4.70;;
41255;SDS011;26989;45.524;10.938;2023-04-28T01:08:47;7.05;;;4.20;;
41255;SDS011;26989;45.524;10.938;2023-04-28T01:11:16;8.30;;;4.55;;
41255;SDS011;26989;45.524;10.938;2023-04-28T01:13:43;7.57;;;5.03;;
41255;SDS011;26989;45.524;10.938;2023-04-28T01:16:10;8.32;;;5.47;;
41255;SDS011;26989;45.524;10.938;2023-04-28T01:18:37;7.63;;;4.97;;
41255;SDS011;26989;45.524;10.938;2023-04-28T01:21:07;9.32;;;4.97;;
41255;SDS011;26989;45.524;10.938;2023-04-28T01:23:33;8.95;;;5.25;;
41255;SDS011;26989;45.524;10.938;2023-04-28T01:26:00;7.80;;;4.63;;
41255;SDS011;26989;45.524;10.938;2023-04-28T01:28:28;7.68;;;5.15;;
41255;SDS011;26989;45.524;10.938;2023-04-28T01:30:55;7.57;;;4.70;;
41255;SDS011;26989;45.524;10.938;2023-04-28T01:33:22;8.20;;;5.28;;
41255;SDS011;26989;45.524;10.938;2023-04-28T01:35:48;7.60;;;4.63;;
41255;SDS011;26989;45.524;10.938;2023-04-28T01:38:15;7.03;;;5.07;;
41255;SDS011;26989;45.524;10.938;2023-04-28T01:40:42;8.52;;;4.68;;
41255;SDS011;26989;45.524;10.938;2023-04-28T01:43:09;8.57;;;5.32;;
41255;SDS011;26989;45.524;10.938;2023-04-28T01:45:35;10.35;;;5.45;;
41255;SDS011;26989;45.524;10.938;2023-04-28T01:48:02;8.00;;;4.97;;
41255;SDS011;26989;45.524;10.938;2023-04-28T01:50:29;6.72;;;4.60;;
41255;SDS011;26989;45.524;10.938;2023-04-28T01:52:56;8.10;;;5.00;;
41255;SDS011;26989;45.524;10.938;2023-04-28T01:55:23;6.40;;;4.28;;
41255;SDS011;26989;45.524;10.938;2023-04-28T01:57:50;9.23;;;5.28;;
41255;SDS011;26989;45.524;10.938;2023-04-28T02:00:17;6.55;;;4.43;;
41255;SDS011;26989;45.524;10.938;2023-04-28T02:02:44;14.15;;;5.53;;
41255;SDS011;26989;45.524;10.938;2023-04-28T02:05:11;9.20;;;5.15;;
41255;SDS011;26989;45.524;10.938;2023-04-28T02:07:38;8.93;;;5.00;;
41255;SDS011;26989;45.524;10.938;2023-04-28T02:10:06;8.93;;;5.80;;
41255;SDS011;26989;45.524;10.938;2023-04-28T02:12:33;8.52;;;4.90;;
41255;SDS011;26989;45.524;10.938;2023-04-28T02:15:00;7.80;;;4.88;;
41255;SDS011;26989;45.524;10.938;2023-04-28T02:17:30;12.38;;;6.55;;
41255;SDS011;26989;45.524;10.938;2023-04-28T02:19:57;8.15;;;5.82;;
41255;SDS011;26989;45.524;10.938;2023-04-28T02:22:24;9.98;;;5.78;;
41255;SDS011;26989;45.524;10.938;2023-04-28T02:24:51;7.40;;;5.07;;
41255;SDS011;26989;45.524;10.938;2023-04-28T02:27:18;8.70;;;5.45;;
41255;SDS011;26989;45.524;10.938;2023-04-28T02:29:45;9.38;;;5.97;;
41255;SDS011;26989;45.524;10.938;2023-04-28T02:32:11;8.57;;;5.88;;
41255;SDS011;26989;45.524;10.938;2023-04-28T02:34:38;8.73;;;5.72;;
41255;SDS011;26989;45.524;10.938;2023-04-28T02:37:05;9.93;;;6.00;;
41255;SDS011;26989;45.524;10.938;2023-04-28T02:39:32;8.77;;;6.53;;
41255;SDS011;26989;45.524;10.938;2023-04-28T02:41:59;9.48;;;5.60;;
41255;SDS011;26989;45.524;10.938;2023-04-28T02:44:26;10.45;;;6.50;;
41255;SDS011;26989;45.524;10.938;2023-04-28T02:46:52;10.18;;;6.60;;
41255;SDS011;26989;45.524;10.938;2023-04-28T02:49:19;9.55;;;6.50;;
41255;SDS011;26989;45.524;10.938;2023-04-28T02:51:46;8.55;;;5.85;;
41255;SDS011;26989;45.524;10.938;2023-04-28T02:54:13;10.60;;;7.20;;
41255;SDS011;26989;45.524;10.938;2023-04-28T02:56:40;10.60;;;7.28;;
41255;SDS011;26989;45.524;10.938;2023-04-28T02:59:07;10.80;;;7.40;;
41255;SDS011;26989;45.524;10.938;2023-04-28T03:01:34;9.60;;;6.43;;
41255;SDS011;26989;45.524;10.938;2023-04-28T03:04:01;11.63;;;6.95;;
41255;SDS011;26989;45.524;10.938;2023-04-28T03:06:28;10.50;;;6.43;;
41255;SDS011;26989;45.524;10.938;2023-04-28T03:08:55;10.20;;;6.53;;
41255;SDS011;26989;45.524;10.938;2023-04-28T03:11:22;10.20;;;7.43;;
41255;SDS011;26989;45.524;10.938;2023-04-28T03:13:49;10.13;;;7.13;;
41255;SDS011;26989;45.524;10.938;2023-04-28T03:16:16;10.98;;;5.10;;
41255;SDS011;26989;45.524;10.938;2023-04-28T03:18:43;5.60;;;4.05;;
41255;SDS011;26989;45.524;10.938;2023-04-28T03:21:09;5.70;;;4.07;;
41255;SDS011;26989;45.524;10.938;2023-04-28T03:23:36;4.82;;;3.38;;
41255;SDS011;26989;45.524;10.938;2023-04-28T03:26:03;7.63;;;3.67;;
41255;SDS011;26989;45.524;10.938;2023-04-28T03:28:30;5.57;;;3.17;;
41255;SDS011;26989;45.524;10.938;2023-04-28T03:30:57;6.60;;;3.40;;
41255;SDS011;26989;45.524;10.938;2023-04-28T03:33:24;7.15;;;3.22;;
41255;SDS011;26989;45.524;10.938;2023-04-28T03:35:50;5.25;;;3.47;;
41255;SDS011;26989;45.524;10.938;2023-04-28T03:38:18;7.80;;;3.90;;
41255;SDS011;26989;45.524;10.938;2023-04-28T03:40:46;5.85;;;3.47;;
41255;SDS011;26989;45.524;10.938;2023-04-28T03:43:12;4.60;;;3.28;;
41255;SDS011;26989;45.524;10.938;2023-04-28T03:45:39;8.70;;;3.85;;
41255;SDS011;26989;45.524;10.938;2023-04-28T03:48:07;5.32;;;3.83;;
41255;SDS011;26989;45.524;10.938;2023-04-28T03:50:33;4.85;;;3.72;;
41255;SDS011;26989;45.524;10.938;2023-04-28T03:53:00;7.80;;;4.10;;
41255;SDS011;26989;45.524;10.938;2023-04-28T03:55:27;7.45;;;4.43;;
41255;SDS011;26989;45.524;10.938;2023-04-28T03:57:54;12.05;;;5.72;;
41255;SDS011;26989;45.524;10.938;2023-04-28T04:00:21;8.35;;;4.60;;
41255;SDS011;26989;45.524;10.938;2023-04-28T04:02:50;7.10;;;4.30;;
41255;SDS011;26989;45.524;10.938;2023-04-28T04:05:17;6.55;;;4.32;;
41255;SDS011;26989;45.524;10.938;2023-04-28T04:07:44;8.68;;;4.20;;
41255;SDS011;26989;45.524;10.938;2023-04-28T04:10:11;11.02;;;4.97;;
41255;SDS011;26989;45.524;10.938;2023-04-28T04:12:38;5.72;;;4.00;;
41255;SDS011;26989;45.524;10.938;2023-04-28T04:15:05;7.90;;;4.05;;
41255;SDS011;26989;45.524;10.938;2023-04-28T04:17:33;11.10;;;3.92;;
41255;SDS011;26989;45.524;10.938;2023-04-28T04:20:00;5.93;;;3.85;;
41255;SDS011;26989;45.524;10.938;2023-04-28T04:22:26;5.82;;;4.00;;
41255;SDS011;26989;45.524;10.938;2023-04-28T04:24:53;8.43;;;4.40;;
41255;SDS011;26989;45.524;10.938;2023-04-28T04:27:20;6.82;;;4.63;;
41255;SDS011;26989;45.524;10.938;2023-04-28T04:29:47;8.63;;;4.78;;
41255;SDS011;26989;45.524;10.938;2023-04-28T04:32:14;8.55;;;5.10;;
41255;SDS011;26989;45.524;10.938;2023-04-28T04:34:41;7.88;;;4.15;;
41255;SDS011;26989;45.524;10.938;2023-04-28T04:37:08;9.27;;;4.70;;
41255;SDS011;26989;45.524;10.938;2023-04-28T04:39:35;13.77;;;5.25;;
41255;SDS011;26989;45.524;10.938;2023-04-28T04:42:02;8.00;;;4.85;;
41255;SDS011;26989;45.524;10.938;2023-04-28T04:44:48;12.50;;;6.43;;
41255;SDS011;26989;45.524;10.938;2023-04-28T04:47:15;14.00;;;6.10;;
41255;SDS011;26989;45.524;10.938;2023-04-28T04:49:42;10.07;;;5.70;;
41255;SDS011;26989;45.524;10.938;2023-04-28T04:52:09;11.00;;;5.97;;
41255;SDS011;26989;45.524;10.938;2023-04-28T04:54:36;13.23;;;5.90;;
41255;SDS011;26989;45.524;10.938;2023-04-28T04:57:03;7.60;;;5.80;;
41255;SDS011;26989;45.524;10.938;2023-04-28T04:59:29;11.70;;;5.65;;
41255;SDS011;26989;45.524;10.938;2023-04-28T05:01:56;12.43;;;6.20;;
41255;SDS011;26989;45.524;10.938;2023-04-28T05:04:23;8.65;;;6.10;;
41255;SDS011;26989;45.524;10.938;2023-04-28T05:06:50;11.27;;;5.63;;
41255;SDS011;26989;45.524;10.938;2023-04-28T05:09:18;7.93;;;4.72;;
41255;SDS011;26989;45.524;10.938;2023-04-28T05:11:44;8.82;;;4.97;;
41255;SDS011;26989;45.524;10.938;2023-04-28T05:14:11;12.18;;;5.63;;
41255;SDS011;26989;45.524;10.938;2023-04-28T05:16:38;7.25;;;5.03;;
41255;SDS011;26989;45.524;10.938;2023-04-28T05:19:05;6.65;;;4.68;;
41255;SDS011;26989;45.524;10.938;2023-04-28T05:21:32;7.05;;;4.90;;
41255;SDS011;26989;45.524;10.938;2023-04-28T05:23:58;8.23;;;5.22;;
41255;SDS011;26989;45.524;10.938;2023-04-28T05:26:25;7.85;;;4.70;;
41255;SDS011;26989;45.524;10.938;2023-04-28T05:28:52;10.07;;;5.07;;
41255;SDS011;26989;45.524;10.938;2023-04-28T05:31:19;9.68;;;4.72;;
41255;SDS011;26989;45.524;10.938;2023-04-28T05:33:46;10.70;;;4.75;;
41255;SDS011;26989;45.524;10.938;2023-04-28T05:36:13;10.88;;;4.70;;
41255;SDS011;26989;45.524;10.938;2023-04-28T05:38:42;9.50;;;5.68;;
41255;SDS011;26989;45.524;10.938;2023-04-28T05:41:09;12.75;;;5.03;;
41255;SDS011;26989;45.524;10.938;2023-04-28T05:43:36;10.48;;;5.10;;
41255;SDS011;26989;45.524;10.938;2023-04-28T05:46:03;9.05;;;5.30;;
41255;SDS011;26989;45.524;10.938;2023-04-28T05:48:40;8.27;;;5.07;;
41255;SDS011;26989;45.524;10.938;2023-04-28T05:51:06;8.45;;;5.50;;
41255;SDS011;26989;45.524;10.938;2023-04-28T05:53:33;12.27;;;5.03;;
41255;SDS011;26989;45.524;10.938;2023-04-28T05:56:02;6.90;;;4.70;;
41255;SDS011;26989;45.524;10.938;2023-04-28T05:58:29;9.82;;;4.60;;
41255;SDS011;26989;45.524;10.938;2023-04-28T06:00:57;9.98;;;5.38;;
41255;SDS011;26989;45.524;10.938;2023-04-28T06:03:23;10.32;;;4.50;;
41255;SDS011;26989;45.524;10.938;2023-04-28T06:05:51;10.88;;;4.97;;
41255;SDS011;26989;45.524;10.938;2023-04-28T06:08:18;8.77;;;4.82;;
41255;SDS011;26989;45.524;10.938;2023-04-28T06:10:45;7.43;;;4.57;;
41255;SDS011;26989;45.524;10.938;2023-04-28T06:13:12;8.18;;;4.88;;
41255;SDS011;26989;45.524;10.938;2023-04-28T06:15:40;11.82;;;4.75;;
41255;SDS011;26989;45.524;10.938;2023-04-28T06:18:07;7.90;;;4.90;;
41255;SDS011;26989;45.524;10.938;2023-04-28T06:20:34;11.77;;;5.13;;
41255;SDS011;26989;45.524;10.938;2023-04-28T06:23:01;8.02;;;4.32;;
41255;SDS011;26989;45.524;10.938;2023-04-28T06:25:28;7.88;;;4.75;;
41255;SDS011;26989;45.524;10.938;2023-04-28T06:27:55;9.68;;;4.60;;
41255;SDS011;26989;45.524;10.938;2023-04-28T06:30:23;8.85;;;4.25;;
41255;SDS011;26989;45.524;10.938;2023-04-28T06:32:51;9.02;;;4.55;;
41255;SDS011;26989;45.524;10.938;2023-04-28T06:35:18;11.13;;;3.80;;
41255;SDS011;26989;45.524;10.938;2023-04-28T06:37:45;10.10;;;4.95;;
41255;SDS011;26989;45.524;10.938;2023-04-28T06:40:12;12.27;;;4.60;;
41255;SDS011;26989;45.524;10.938;2023-04-28T06:42:39;11.55;;;5.45;;
41255;SDS011;26989;45.524;10.938;2023-04-28T06:45:06;9.32;;;4.35;;
41255;SDS011;26989;45.524;10.938;2023-04-28T06:47:33;7.80;;;4.97;;
41255;SDS011;26989;45.524;10.938;2023-04-28T06:50:02;9.55;;;4.45;;
41255;SDS011;26989;45.524;10.938;2023-04-28T06:52:29;10.23;;;5.35;;
41255;SDS011;26989;45.524;10.938;2023-04-28T06:55:05;7.93;;;4.18;;
41255;SDS011;26989;45.524;10.938;2023-04-28T06:57:33;8.68;;;4.22;;
41255;SDS011;26989;45.524;10.938;2023-04-28T07:00:00;10.10;;;5.28;;
41255;SDS011;26989;45.524;10.938;2023-04-28T07:02:27;8.50;;;4.55;;
41255;SDS011;26989;45.524;10.938;2023-04-28T07:04:54;7.93;;;4.57;;
41255;SDS011;26989;45.524;10.938;2023-04-28T07:07:21;8.13;;;4.28;;
41255;SDS011;26989;45.524;10.938;2023-04-28T07:09:48;7.03;;;4.50;;
41255;SDS011;26989;45.524;10.938;2023-04-28T07:12:15;13.35;;;5.40;;
41255;SDS011;26989;45.524;10.938;2023-04-28T07:14:42;14.93;;;4.25;;
41255;SDS011;26989;45.524;10.938;2023-04-28T07:17:08;10.77;;;4.50;;
41255;SDS011;26989;45.524;10.938;2023-04-28T07:19:35;6.85;;;4.03;;
41255;SDS011;26989;45.524;10.938;2023-04-28T07:22:02;13.73;;;4.38;;
41255;SDS011;26989;45.524;10.938;2023-04-28T07:24:29;8.18;;;4.07;;
41255;SDS011;26989;45.524;10.938;2023-04-28T07:26:56;7.25;;;4.38;;
41255;SDS011;26989;45.524;10.938;2023-04-28T07:29:23;9.13;;;5.05;;
41255;SDS011;26989;45.524;10.938;2023-04-28T07:31:50;7.25;;;4.07;;
41255;SDS011;26989;45.524;10.938;2023-04-28T07:34:17;10.63;;;4.65;;
41255;SDS011;26989;45.524;10.938;2023-04-28T07:36:44;12.48;;;4.45;;
41255;SDS011;26989;45.524;10.938;2023-04-28T07:39:11;11.70;;;4.80;;
41255;SDS011;26989;45.524;10.938;2023-04-28T07:41:39;6.45;;;4.18;;
41255;SDS011;26989;45.524;10.938;2023-04-28T07:44:06;24.40;;;13.35;;
41255;SDS011;26989;45.524;10.938;2023-04-28T07:46:36;20.05;;;11.02;;
41255;SDS011;26989;45.524;10.938;2023-04-28T07:49:03;9.27;;;4.82;;
41255;SDS011;26989;45.524;10.938;2023-04-28T07:51:30;8.25;;;4.22;;
41255;SDS011;26989;45.524;10.938;2023-04-28T07:53:57;11.77;;;4.80;;
41255;SDS011;26989;45.524;10.938;2023-04-28T07:56:24;5.85;;;3.95;;
41255;SDS011;26989;45.524;10.938;2023-04-28T07:58:55;5.55;;;4.07;;
41255;SDS011;26989;45.524;10.938;2023-04-28T08:01:22;10.40;;;4.40;;
41255;SDS011;26989;45.524;10.938;2023-04-28T08:03:49;6.55;;;4.40;;
41255;SDS011;26989;45.524;10.938;2023-04-28T08:06:17;7.25;;;4.43;;
41255;SDS011;26989;45.524;10.938;2023-04-28T08:08:44;6.40;;;4.15;;
41255;SDS011;26989;45.524;10.938;2023-04-28T08:11:11;8.07;;;4.32;;
41255;SDS011;26989;45.524;10.938;2023-04-28T08:13:38;8.75;;;5.00;;
41255;SDS011;26989;45.524;10.938;2023-04-28T08:16:04;11.98;;;4.10;;
41255;SDS011;26989;45.524;10.938;2023-04-28T08:18:32;7.93;;;4.03;;
41255;SDS011;26989;45.524;10.938;2023-04-28T08:20:59;6.55;;;4.05;;
41255;SDS011;26989;45.524;10.938;2023-04-28T08:23:25;8.80;;;3.85;;
41255;SDS011;26989;45.524;10.938;2023-04-28T08:25:54;7.82;;;4.25;;
41255;SDS011;26989;45.524;10.938;2023-04-28T08:28:21;9.75;;;4.15;;
41255;SDS011;26989;45.524;10.938;2023-04-28T08:30:48;13.45;;;4.53;;
41255;SDS011;26989;45.524;10.938;2023-04-28T08:33:14;10.63;;;4.72;;
41255;SDS011;26989;45.524;10.938;2023-04-28T08:35:41;9.02;;;4.88;;
41255;SDS011;26989;45.524;10.938;2023-04-28T08:38:08;7.82;;;5.13;;
41255;SDS011;26989;45.524;10.938;2023-04-28T08:40:39;11.70;;;6.95;;
41255;SDS011;26989;45.524;10.938;2023-04-28T08:43:08;11.48;;;7.03;;
41255;SDS011;26989;45.524;10.938;2023-04-28T08:45:42;17.65;;;7.45;;
41255;SDS011;26989;45.524;10.938;2023-04-28T08:48:20;14.25;;;7.47;;
41255;SDS011;26989;45.524;10.938;2023-04-28T08:50:49;11.52;;;6.45;;
41255;SDS011;26989;45.524;10.938;2023-04-28T08:53:20;11.90;;;5.65;;
41255;SDS011;26989;45.524;10.938;2023-04-28T08:55:54;11.43;;;6.13;;
41255;SDS011;26989;45.524;10.938;2023-04-28T08:58:26;8.05;;;5.15;;
41255;SDS011;26989;45.524;10.938;2023-04-28T09:00:53;8.77;;;4.78;;
41255;SDS011;26989;45.524;10.938;2023-04-28T09:03:20;10.77;;;4.35;;
41255;SDS011;26989;45.524;10.938;2023-04-28T09:05:48;7.93;;;4.53;;
41255;SDS011;26989;45.524;10.938;2023-04-28T09:08:15;9.73;;;4.72;;
41255;SDS011;26989;45.524;10.938;2023-04-28T09:10:41;8.30;;;4.10;;
41255;SDS011;26989;45.524;10.938;2023-04-28T09:13:09;4.72;;;3.47;;
41255;SDS011;26989;45.524;10.938;2023-04-28T09:15:36;9.10;;;3.88;;
41255;SDS011;26989;45.524;10.938;2023-04-28T09:18:06;6.00;;;3.70;;
41255;SDS011;26989;45.524;10.938;2023-04-28T09:20:34;5.90;;;3.55;;
41255;SDS011;26989;45.524;10.938;2023-04-28T09:23:15;7.03;;;3.30;;
41255;SDS011;26989;45.524;10.938;2023-04-28T09:28:32;8.43;;;3.83;;
41255;SDS011;26989;45.524;10.938;2023-04-28T09:31:01;7.72;;;3.72;;
41255;SDS011;26989;45.524;10.938;2023-04-28T09:33:29;10.68;;;4.45;;
41255;SDS011;26989;45.524;10.938;2023-04-28T09:35:56;5.22;;;3.72;;
41255;SDS011;26989;45.524;10.938;2023-04-28T09:38:23;8.95;;;3.83;;
41255;SDS011;26989;45.524;10.938;2023-04-28T09:40:53;6.72;;;3.20;;
41255;SDS011;26989;45.524;10.938;2023-04-28T09:45:53;6.57;;;3.45;;
41255;SDS011;26989;45.524;10.938;2023-04-28T09:48:27;7.68;;;3.83;;
41255;SDS011;26989;45.524;10.938;2023-04-28T09:50:55;11.75;;;3.67;;
41255;SDS011;26989;45.524;10.938;2023-04-28T09:53:24;8.32;;;3.85;;
41255;SDS011;26989;45.524;10.938;2023-04-28T09:55:53;8.75;;;3.53;;
41255;SDS011;26989;45.524;10.938;2023-04-28T09:58:22;6.97;;;3.72;;
41255;SDS011;26989;45.524;10.938;2023-04-28T10:00:53;6.60;;;4.40;;
41255;SDS011;26989;45.524;10.938;2023-04-28T10:03:22;10.30;;;4.45;;
41255;SDS011;26989;45.524;10.938;2023-04-28T10:05:56;9.25;;;4.60;;
41255;SDS011;26989;45.524;10.938;2023-04-28T10:08:24;7.32;;;4.50;;
41255;SDS011;26989;45.524;10.938;2023-04-28T10:10:53;9.57;;;4.78;;
41255;SDS011;26989;45.524;10.938;2023-04-28T10:13:22;9.48;;;4.30;;
41255;SDS011;26989;45.524;10.938;2023-04-28T10:15:49;8.85;;;4.57;;
41255;SDS011;26989;45.524;10.938;2023-04-28T10:18:21;8.68;;;4.22;;
41255;SDS011;26989;45.524;10.938;2023-04-28T10:20:48;9.75;;;4.40;;
41255;SDS011;26989;45.524;10.938;2023-04-28T10:25:54;7.90;;;4.00;;
41255;SDS011;26989;45.524;10.938;2023-04-28T10:28:26;5.72;;;3.38;;
41255;SDS011;26989;45.524;10.938;2023-04-28T10:31:09;8.27;;;3.60;;
41255;SDS011;26989;45.524;10.938;2023-04-28T10:33:39;6.47;;;3.17;;
41255;SDS011;26989;45.524;10.938;2023-04-28T10:36:06;6.20;;;2.60;;
41255;SDS011;26989;45.524;10.938;2023-04-28T10:38:34;8.05;;;2.55;;
41255;SDS011;26989;45.524;10.938;2023-04-28T10:41:02;6.22;;;3.00;;
41255;SDS011;26989;45.524;10.938;2023-04-28T10:56:13;5.93;;;3.25;;
41255;SDS011;26989;45.524;10.938;2023-04-28T10:58:42;4.78;;;2.92;;
41255;SDS011;26989;45.524;10.938;2023-04-28T11:03:57;5.47;;;3.05;;
41255;SDS011;26989;45.524;10.938;2023-04-28T11:06:33;4.80;;;2.55;;
41255;SDS011;26989;45.524;10.938;2023-04-28T11:16:52;7.90;;;2.95;;
41255;SDS011;26989;45.524;10.938;2023-04-28T11:21:58;4.13;;;2.92;;
41255;SDS011;26989;45.524;10.938;2023-04-28T11:24:26;6.18;;;2.90;;
41255;SDS011;26989;45.524;10.938;2023-04-28T11:26:58;6.55;;;3.08;;
41255;SDS011;26989;45.524;10.938;2023-04-28T11:29:35;5.22;;;2.78;;
41255;SDS011;26989;45.524;10.938;2023-04-28T11:32:04;7.88;;;3.33;;
41255;SDS011;26989;45.524;10.938;2023-04-28T11:34:32;8.38;;;3.30;;
41255;SDS011;26989;45.524;10.938;2023-04-28T11:37:00;5.78;;;3.20;;
41255;SDS011;26989;45.524;10.938;2023-04-28T11:39:28;5.65;;;3.88;;
41255;SDS011;26989;45.524;10.938;2023-04-28T11:41:57;6.30;;;3.75;;
41255;SDS011;26989;45.524;10.938;2023-04-28T11:44:26;7.85;;;4.47;;
41255;SDS011;26989;45.524;10.938;2023-04-28T11:49:29;6.80;;;4.65;;
41255;SDS011;26989;45.524;10.938;2023-04-28T11:52:05;7.40;;;4.55;;
41255;SDS011;26989;45.524;10.938;2023-04-28T11:54:33;5.43;;;3.85;;
41255;SDS011;26989;45.524;10.938;2023-04-28T11:57:01;6.00;;;3.40;;
41255;SDS011;26989;45.524;10.938;2023-04-28T11:59:30;7.43;;;3.40;;
41255;SDS011;26989;45.524;10.938;2023-04-28T12:07:14;5.75;;;3.70;;
41255;SDS011;26989;45.524;10.938;2023-04-28T12:09:43;5.35;;;3.80;;
41255;SDS011;26989;45.524;10.938;2023-04-28T12:12:16;6.43;;;3.80;;
41255;SDS011;26989;45.524;10.938;2023-04-28T12:15:15;5.38;;;3.85;;
41255;SDS011;26989;45.524;10.938;2023-04-28T12:17:45;6.72;;;4.20;;
41255;SDS011;26989;45.524;10.938;2023-04-28T12:20:32;8.02;;;4.43;;
41255;SDS011;26989;45.524;10.938;2023-04-28T12:23:03;7.70;;;4.97;;
41255;SDS011;26989;45.524;10.938;2023-04-28T12:25:31;7.90;;;4.93;;
41255;SDS011;26989;45.524;10.938;2023-04-28T12:28:03;5.47;;;3.60;;
41255;SDS011;26989;45.524;10.938;2023-04-28T12:30:34;6.38;;;3.85;;
41255;SDS011;26989;45.524;10.938;2023-04-28T12:33:23;7.43;;;3.97;;
41255;SDS011;26989;45.524;10.938;2023-04-28T12:35:52;4.80;;;3.50;;
41255;SDS011;26989;45.524;10.938;2023-04-28T12:38:22;5.30;;;3.65;;
41255;SDS011;26989;45.524;10.938;2023-04-28T12:40:50;7.60;;;4.28;;
41255;SDS011;26989;45.524;10.938;2023-04-28T12:43:17;6.30;;;4.03;;
41255;SDS011;26989;45.524;10.938;2023-04-28T12:45:44;8.38;;;4.18;;
41255;SDS011;26989;45.524;10.938;2023-04-28T12:48:11;9.02;;;5.75;;
41255;SDS011;26989;45.524;10.938;2023-04-28T12:50:38;8.95;;;5.30;;
41255;SDS011;26989;45.524;10.938;2023-04-28T12:53:05;6.47;;;3.95;;
41255;SDS011;26989;45.524;10.938;2023-04-28T12:55:31;7.07;;;4.38;;
41255;SDS011;26989;45.524;10.938;2023-04-28T12:57:58;14.23;;;5.50;;
41255;SDS011;26989;45.524;10.938;2023-04-28T13:00:25;12.00;;;5.05;;
41255;SDS011;26989;45.524;10.938;2023-04-28T13:02:53;10.20;;;5.75;;
41255;SDS011;26989;45.524;10.938;2023-04-28T13:05:20;17.50;;;6.32;;
41255;SDS011;26989;45.524;10.938;2023-04-28T13:07:47;8.45;;;5.90;;
41255;SDS011;26989;45.524;10.938;2023-04-28T13:10:16;10.80;;;5.78;;
41255;SDS011;26989;45.524;10.938;2023-04-28T13:12:44;9.23;;;6.88;;
41255;SDS011;26989;45.524;10.938;2023-04-28T13:15:10;10.93;;;6.32;;
41255;SDS011;26989;45.524;10.938;2023-04-28T13:17:37;11.05;;;6.85;;
41255;SDS011;26989;45.524;10.938;2023-04-28T13:20:05;13.88;;;7.32;;
41255;SDS011;26989;45.524;10.938;2023-04-28T13:22:32;10.23;;;7.20;;
41255;SDS011;26989;45.524;10.938;2023-04-28T13:24:59;10.40;;;6.55;;
41255;SDS011;26989;45.524;10.938;2023-04-28T13:27:26;10.35;;;6.63;;
41255;SDS011;26989;45.524;10.938;2023-04-28T13:29:55;9.95;;;7.68;;
41255;SDS011;26989;45.524;10.938;2023-04-28T13:32:24;11.57;;;8.43;;
41255;SDS011;26989;45.524;10.938;2023-04-28T13:34:51;13.80;;;8.40;;
41255;SDS011;26989;45.524;10.938;2023-04-28T13:37:18;14.27;;;7.38;;
41255;SDS011;26989;45.524;10.938;2023-04-28T13:39:44;13.93;;;8.90;;
41255;SDS011;26989;45.524;10.938;2023-04-28T13:42:12;14.52;;;9.27;;
41255;SDS011;26989;45.524;10.938;2023-04-28T13:44:39;12.20;;;9.40;;
41255;SDS011;26989;45.524;10.938;2023-04-28T13:47:06;11.68;;;8.45;;
41255;SDS011;26989;45.524;10.938;2023-04-28T13:49:34;13.73;;;9.38;;
41255;SDS011;26989;45.524;10.938;2023-04-28T13:52:02;15.07;;;10.13;;
41255;SDS011;26989;45.524;10.938;2023-04-28T13:54:29;15.82;;;9.45;;
41255;SDS011;26989;45.524;10.938;2023-04-28T13:56:56;17.75;;;11.02;;
41255;SDS011;26989;45.524;10.938;2023-04-28T13:59:23;17.70;;;9.52;;
41255;SDS011;26989;45.524;10.938;2023-04-28T14:01:50;15.15;;;10.55;;
41255;SDS011;26989;45.524;10.938;2023-04-28T14:04:17;18.80;;;11.50;;
41255;SDS011;26989;45.524;10.938;2023-04-28T14:06:44;18.65;;;11.02;;
41255;SDS011;26989;45.524;10.938;2023-04-28T14:09:11;17.80;;;11.48;;
41255;SDS011;26989;45.524;10.938;2023-04-28T14:11:38;17.60;;;11.88;;
41255;SDS011;26989;45.524;10.938;2023-04-28T14:14:05;25.45;;;12.25;;
41255;SDS011;26989;45.524;10.938;2023-04-28T14:16:32;23.27;;;13.65;;
41255;SDS011;26989;45.524;10.938;2023-04-28T14:18:59;16.45;;;11.77;;
41255;SDS011;26989;45.524;10.938;2023-04-28T14:21:26;16.10;;;10.85;;
41255;SDS011;26989;45.524;10.938;2023-04-28T14:23:53;18.63;;;11.52;;
41255;SDS011;26989;45.524;10.938;2023-04-28T14:26:20;36.42;;;17.90;;
41255;SDS011;26989;45.524;10.938;2023-04-28T14:28:49;23.83;;;13.25;;
41255;SDS011;26989;45.524;10.938;2023-04-28T14:31:16;22.77;;;14.05;;
41255;SDS011;26989;45.524;10.938;2023-04-28T14:33:43;20.60;;;12.45;;
41255;SDS011;26989;45.524;10.938;2023-04-28T14:36:10;19.08;;;11.88;;
41255;SDS011;26989;45.524;10.938;2023-04-28T14:38:37;20.33;;;13.13;;
41255;SDS011;26989;45.524;10.938;2023-04-28T14:41:06;26.42;;;17.20;;
41255;SDS011;26989;45.524;10.938;2023-04-28T14:43:34;21.23;;;12.63;;
41255;SDS011;26989;45.524;10.938;2023-04-28T14:46:01;25.48;;;12.40;;
41255;SDS011;26989;45.524;10.938;2023-04-28T14:48:28;25.33;;;12.95;;
41255;SDS011;26989;45.524;10.938;2023-04-28T14:50:55;21.10;;;12.77;;
41255;SDS011;26989;45.524;10.938;2023-04-28T14:53:22;20.02;;;12.52;;
41255;SDS011;26989;45.524;10.938;2023-04-28T14:55:49;19.10;;;12.20;;
41255;SDS011;26989;45.524;10.938;2023-04-28T14:58:16;19.05;;;11.63;;
41255;SDS011;26989;45.524;10.938;2023-04-28T15:00:43;21.40;;;12.82;;
41255;SDS011;26989;45.524;10.938;2023-04-28T15:03:10;18.35;;;12.60;;
41255;SDS011;26989;45.524;10.938;2023-04-28T15:05:37;19.60;;;12.23;;
41255;SDS011;26989;45.524;10.938;2023-04-28T15:08:04;16.73;;;11.18;;
41255;SDS011;26989;45.524;10.938;2023-04-28T15:10:34;18.98;;;11.90;;
41255;SDS011;26989;45.524;10.938;2023-04-28T15:13:04;17.05;;;11.35;;